sensor_id;sensor_type;location;lat;lon;timestamp;P1;durP1;ratioP1;P2;durP2;ratioP2
65871;SDS011;52653;50.080;21.992;2022-11-15T00:02:57;18.40;;;11.90;;
65871;SDS011;52653;50.080;21.992;2022-11-15T00:05:48;18.10;;;11.30;;
65871;SDS011;52653;50.080;21.992;2022-11-15T00:08:38;17.10;;;10.80;;
65871;SDS011;52653;50.080;21.992;2022-11-15T00:11:29;18.40;;;11.10;;
65871;SDS011;52653;50.080;21.992;2022-11-15T00:14:19;20.50;;;12.80;;
65871;SDS011;52653;50.080;21.992;2022-11-15T00:17:10;17.20;;;11.30;;
65871;SDS011;52653;50.080;21.992;2022-11-15T00:20:00;18.50;;;12.10;;
65871;SDS011;52653;50.080;21.992;2022-11-15T00:22:50;19.00;;;11.90;;
65871;SDS011;52653;50.080;21.992;2022-11-15T00:25:41;18.90;;;11.90;;
65871;SDS011;52653;50.080;21.992;2022-11-15T00:28:31;18.90;;;11.50;;
65871;SDS011;52653;50.080;21.992;2022-11-15T00:31:21;19.80;;;12.50;;
65871;SDS011;52653;50.080;21.992;2022-11-15T00:34:12;19.10;;;11.30;;
65871;SDS011;52653;50.080;21.992;2022-11-15T00:37:02;20.10;;;12.20;;
65871;SDS011;52653;50.080;21.992;2022-11-15T00:39:54;19.30;;;12.10;;
65871;SDS011;52653;50.080;21.992;2022-11-15T00:42:45;18.70;;;11.60;;
65871;SDS011;52653;50.080;21.992;2022-11-15T00:45:35;21.40;;;13.00;;
65871;SDS011;52653;50.080;21.992;2022-11-15T00:48:26;19.50;;;12.20;;
65871;SDS011;52653;50.080;21.992;2022-11-15T00:51:16;18.10;;;11.60;;
65871;SDS011;52653;50.080;21.992;2022-11-15T00:54:06;18.60;;;12.00;;
65871;SDS011;52653;50.080;21.992;2022-11-15T00:56:57;22.20;;;14.40;;
65871;SDS011;52653;50.080;21.992;2022-11-15T00:59:47;17.00;;;11.00;;
65871;SDS011;52653;50.080;21.992;2022-11-15T01:02:39;18.20;;;11.30;;
65871;SDS011;52653;50.080;21.992;2022-11-15T01:05:29;18.30;;;11.10;;
65871;SDS011;52653;50.080;21.992;2022-11-15T01:08:20;16.20;;;11.00;;
65871;SDS011;52653;50.080;21.992;2022-11-15T01:11:11;18.50;;;11.60;;
65871;SDS011;52653;50.080;21.992;2022-11-15T01:14:01;18.60;;;11.40;;
65871;SDS011;52653;50.080;21.992;2022-11-15T01:16:52;19.30;;;11.10;;
65871;SDS011;52653;50.080;21.992;2022-11-15T01:19:42;16.40;;;10.90;;
65871;SDS011;52653;50.080;21.992;2022-11-15T01:22:33;17.00;;;10.70;;
65871;SDS011;52653;50.080;21.992;2022-11-15T01:25:23;15.70;;;10.80;;
65871;SDS011;52653;50.080;21.992;2022-11-15T01:28:15;17.20;;;10.80;;
65871;SDS011;52653;50.080;21.992;2022-11-15T01:31:06;18.60;;;11.70;;
65871;SDS011;52653;50.080;21.992;2022-11-15T01:33:59;19.80;;;11.60;;
65871;SDS011;52653;50.080;21.992;2022-11-15T01:36:50;20.10;;;11.90;;
65871;SDS011;52653;50.080;21.992;2022-11-15T01:39:40;20.60;;;12.00;;
65871;SDS011;52653;50.080;21.992;2022-11-15T01:42:30;18.70;;;11.90;;
65871;SDS011;52653;50.080;21.992;2022-11-15T01:45:21;19.00;;;11.60;;
65871;SDS011;52653;50.080;21.992;2022-11-15T01:48:11;17.00;;;10.90;;
65871;SDS011;52653;50.080;21.992;2022-11-15T01:51:02;19.40;;;11.30;;
65871;SDS011;52653;50.080;21.992;2022-11-15T01:53:59;15.80;;;10.40;;
65871;SDS011;52653;50.080;21.992;2022-11-15T01:56:53;19.40;;;12.00;;
65871;SDS011;52653;50.080;21.992;2022-11-15T01:59:47;18.10;;;12.60;;
65871;SDS011;52653;50.080;21.992;2022-11-15T02:02:38;18.90;;;13.20;;
65871;SDS011;52653;50.080;21.992;2022-11-15T02:05:28;21.50;;;13.10;;
65871;SDS011;52653;50.080;21.992;2022-11-15T02:08:20;21.30;;;13.10;;
65871;SDS011;52653;50.080;21.992;2022-11-15T02:11:10;19.60;;;12.40;;
65871;SDS011;52653;50.080;21.992;2022-11-15T02:14:01;20.30;;;11.80;;
65871;SDS011;52653;50.080;21.992;2022-11-15T02:16:54;20.20;;;12.60;;
65871;SDS011;52653;50.080;21.992;2022-11-15T02:23:13;21.30;;;12.90;;
65871;SDS011;52653;50.080;21.992;2022-11-15T02:29:46;18.80;;;12.80;;
65871;SDS011;52653;50.080;21.992;2022-11-15T02:32:54;22.40;;;13.30;;
65871;SDS011;52653;50.080;21.992;2022-11-15T02:35:48;21.50;;;13.00;;
65871;SDS011;52653;50.080;21.992;2022-11-15T02:38:47;21.20;;;12.70;;
65871;SDS011;52653;50.080;21.992;2022-11-15T02:41:47;20.70;;;12.30;;
65871;SDS011;52653;50.080;21.992;2022-11-15T02:44:44;19.20;;;12.30;;
65871;SDS011;52653;50.080;21.992;2022-11-15T02:47:37;18.70;;;11.30;;
65871;SDS011;52653;50.080;21.992;2022-11-15T02:50:32;20.00;;;12.70;;
65871;SDS011;52653;50.080;21.992;2022-11-15T02:53:24;21.00;;;12.90;;
65871;SDS011;52653;50.080;21.992;2022-11-15T02:56:16;20.20;;;12.70;;
65871;SDS011;52653;50.080;21.992;2022-11-15T02:59:23;21.30;;;13.40;;
65871;SDS011;52653;50.080;21.992;2022-11-15T03:02:26;19.40;;;12.30;;
65871;SDS011;52653;50.080;21.992;2022-11-15T03:05:30;21.90;;;13.50;;
65871;SDS011;52653;50.080;21.992;2022-11-15T03:08:31;18.80;;;12.00;;
65871;SDS011;52653;50.080;21.992;2022-11-15T03:11:28;20.70;;;13.60;;
65871;SDS011;52653;50.080;21.992;2022-11-15T03:14:22;18.20;;;12.10;;
65871;SDS011;52653;50.080;21.992;2022-11-15T03:17:18;21.40;;;12.30;;
65871;SDS011;52653;50.080;21.992;2022-11-15T03:20:13;23.10;;;13.20;;
65871;SDS011;52653;50.080;21.992;2022-11-15T03:23:06;19.40;;;12.20;;
65871;SDS011;52653;50.080;21.992;2022-11-15T03:25:59;22.50;;;13.00;;
65871;SDS011;52653;50.080;21.992;2022-11-15T03:28:51;19.50;;;12.60;;
65871;SDS011;52653;50.080;21.992;2022-11-15T03:31:48;20.40;;;12.50;;
65871;SDS011;52653;50.080;21.992;2022-11-15T03:34:46;18.00;;;8.50;;
65871;SDS011;52653;50.080;21.992;2022-11-15T03:37:40;19.80;;;12.10;;
65871;SDS011;52653;50.080;21.992;2022-11-15T03:40:35;20.70;;;13.20;;
65871;SDS011;52653;50.080;21.992;2022-11-15T03:43:30;20.50;;;14.20;;
65871;SDS011;52653;50.080;21.992;2022-11-15T03:46:25;21.10;;;14.50;;
65871;SDS011;52653;50.080;21.992;2022-11-15T03:49:22;25.30;;;15.50;;
65871;SDS011;52653;50.080;21.992;2022-11-15T03:52:15;24.30;;;14.80;;
65871;SDS011;52653;50.080;21.992;2022-11-15T03:55:10;21.30;;;13.60;;
65871;SDS011;52653;50.080;21.992;2022-11-15T03:58:03;20.40;;;14.10;;
65871;SDS011;52653;50.080;21.992;2022-11-15T04:00:54;21.90;;;13.50;;
65871;SDS011;52653;50.080;21.992;2022-11-15T04:03:47;19.90;;;13.10;;
65871;SDS011;52653;50.080;21.992;2022-11-15T04:06:37;22.10;;;14.30;;
65871;SDS011;52653;50.080;21.992;2022-11-15T04:09:27;18.90;;;12.50;;
65871;SDS011;52653;50.080;21.992;2022-11-15T04:12:18;19.20;;;12.60;;
65871;SDS011;52653;50.080;21.992;2022-11-15T04:15:19;19.90;;;11.30;;
65871;SDS011;52653;50.080;21.992;2022-11-15T04:18:10;16.70;;;10.60;;
65871;SDS011;52653;50.080;21.992;2022-11-15T04:21:01;18.50;;;9.20;;
65871;SDS011;52653;50.080;21.992;2022-11-15T04:24:09;12.90;;;8.70;;
65871;SDS011;52653;50.080;21.992;2022-11-15T04:27:02;14.80;;;8.30;;
65871;SDS011;52653;50.080;21.992;2022-11-15T04:29:53;19.00;;;7.90;;
65871;SDS011;52653;50.080;21.992;2022-11-15T04:32:45;12.90;;;7.60;;
65871;SDS011;52653;50.080;21.992;2022-11-15T04:35:36;14.30;;;8.00;;
65871;SDS011;52653;50.080;21.992;2022-11-15T04:38:27;18.50;;;8.10;;
65871;SDS011;52653;50.080;21.992;2022-11-15T04:41:17;21.60;;;8.70;;
65871;SDS011;52653;50.080;21.992;2022-11-15T04:44:08;19.00;;;8.70;;
65871;SDS011;52653;50.080;21.992;2022-11-15T04:46:58;14.40;;;8.40;;
65871;SDS011;52653;50.080;21.992;2022-11-15T04:49:49;12.70;;;7.70;;
65871;SDS011;52653;50.080;21.992;2022-11-15T04:52:40;11.20;;;7.10;;
65871;SDS011;52653;50.080;21.992;2022-11-15T04:55:32;10.60;;;6.80;;
65871;SDS011;52653;50.080;21.992;2022-11-15T04:58:22;12.00;;;8.20;;
65871;SDS011;52653;50.080;21.992;2022-11-15T05:01:13;20.20;;;6.90;;
65871;SDS011;52653;50.080;21.992;2022-11-15T05:04:06;15.10;;;7.70;;
65871;SDS011;52653;50.080;21.992;2022-11-15T05:07:09;15.70;;;7.90;;
65871;SDS011;52653;50.080;21.992;2022-11-15T05:10:00;16.70;;;7.60;;
65871;SDS011;52653;50.080;21.992;2022-11-15T05:12:51;10.90;;;7.30;;
65871;SDS011;52653;50.080;21.992;2022-11-15T05:15:42;12.40;;;7.90;;
65871;SDS011;52653;50.080;21.992;2022-11-15T05:18:33;11.20;;;7.50;;
65871;SDS011;52653;50.080;21.992;2022-11-15T05:21:24;10.20;;;7.00;;
65871;SDS011;52653;50.080;21.992;2022-11-15T05:24:15;9.70;;;6.70;;
65871;SDS011;52653;50.080;21.992;2022-11-15T05:27:06;11.50;;;7.00;;
65871;SDS011;52653;50.080;21.992;2022-11-15T05:29:56;12.50;;;7.20;;
65871;SDS011;52653;50.080;21.992;2022-11-15T05:32:47;16.60;;;8.40;;
65871;SDS011;52653;50.080;21.992;2022-11-15T05:35:39;17.80;;;7.80;;
65871;SDS011;52653;50.080;21.992;2022-11-15T05:38:30;20.10;;;8.00;;
65871;SDS011;52653;50.080;21.992;2022-11-15T05:41:24;12.40;;;8.50;;
65871;SDS011;52653;50.080;21.992;2022-11-15T05:44:19;11.70;;;8.00;;
65871;SDS011;52653;50.080;21.992;2022-11-15T05:47:13;12.90;;;8.30;;
65871;SDS011;52653;50.080;21.992;2022-11-15T05:50:09;12.50;;;8.00;;
65871;SDS011;52653;50.080;21.992;2022-11-15T05:53:03;11.30;;;6.50;;
65871;SDS011;52653;50.080;21.992;2022-11-15T05:55:56;11.70;;;6.80;;
65871;SDS011;52653;50.080;21.992;2022-11-15T05:58:46;11.10;;;6.90;;
65871;SDS011;52653;50.080;21.992;2022-11-15T06:01:42;10.40;;;6.60;;
65871;SDS011;52653;50.080;21.992;2022-11-15T06:04:33;15.90;;;6.90;;
65871;SDS011;52653;50.080;21.992;2022-11-15T06:07:23;15.50;;;7.50;;
65871;SDS011;52653;50.080;21.992;2022-11-15T06:10:13;11.10;;;6.90;;
65871;SDS011;52653;50.080;21.992;2022-11-15T06:13:04;15.80;;;7.00;;
65871;SDS011;52653;50.080;21.992;2022-11-15T06:15:56;12.80;;;7.00;;
65871;SDS011;52653;50.080;21.992;2022-11-15T06:18:46;13.10;;;6.10;;
65871;SDS011;52653;50.080;21.992;2022-11-15T06:21:37;11.70;;;6.00;;
65871;SDS011;52653;50.080;21.992;2022-11-15T06:24:28;16.60;;;6.40;;
65871;SDS011;52653;50.080;21.992;2022-11-15T06:27:18;13.30;;;6.30;;
65871;SDS011;52653;50.080;21.992;2022-11-15T06:30:10;14.90;;;6.60;;
65871;SDS011;52653;50.080;21.992;2022-11-15T06:33:01;28.70;;;6.40;;
65871;SDS011;52653;50.080;21.992;2022-11-15T06:35:53;31.00;;;7.30;;
65871;SDS011;52653;50.080;21.992;2022-11-15T06:38:43;10.90;;;6.30;;
65871;SDS011;52653;50.080;21.992;2022-11-15T06:41:34;12.20;;;6.50;;
65871;SDS011;52653;50.080;21.992;2022-11-15T06:44:26;11.70;;;6.40;;
65871;SDS011;52653;50.080;21.992;2022-11-15T06:47:16;10.40;;;7.30;;
65871;SDS011;52653;50.080;21.992;2022-11-15T06:50:07;10.00;;;6.40;;
65871;SDS011;52653;50.080;21.992;2022-11-15T06:53:01;9.80;;;6.40;;
65871;SDS011;52653;50.080;21.992;2022-11-15T06:55:52;11.50;;;7.10;;
65871;SDS011;52653;50.080;21.992;2022-11-15T06:58:48;12.10;;;6.50;;
65871;SDS011;52653;50.080;21.992;2022-11-15T07:01:38;24.90;;;7.60;;
65871;SDS011;52653;50.080;21.992;2022-11-15T07:04:29;18.50;;;7.70;;
65871;SDS011;52653;50.080;21.992;2022-11-15T07:07:20;13.60;;;7.10;;
65871;SDS011;52653;50.080;21.992;2022-11-15T07:10:11;11.90;;;6.10;;
65871;SDS011;52653;50.080;21.992;2022-11-15T07:13:01;9.90;;;6.40;;
65871;SDS011;52653;50.080;21.992;2022-11-15T07:15:52;14.70;;;7.20;;
65871;SDS011;52653;50.080;21.992;2022-11-15T07:18:42;14.40;;;7.30;;
65871;SDS011;52653;50.080;21.992;2022-11-15T07:21:33;21.70;;;7.70;;
65871;SDS011;52653;50.080;21.992;2022-11-15T07:24:24;15.80;;;7.30;;
65871;SDS011;52653;50.080;21.992;2022-11-15T07:27:14;17.80;;;7.60;;
65871;SDS011;52653;50.080;21.992;2022-11-15T07:30:06;14.90;;;7.50;;
65871;SDS011;52653;50.080;21.992;2022-11-15T07:32:59;12.70;;;7.40;;
65871;SDS011;52653;50.080;21.992;2022-11-15T07:35:49;12.10;;;8.20;;
65871;SDS011;52653;50.080;21.992;2022-11-15T07:38:40;13.00;;;8.30;;
65871;SDS011;52653;50.080;21.992;2022-11-15T07:41:31;14.60;;;8.40;;
65871;SDS011;52653;50.080;21.992;2022-11-15T07:44:21;14.80;;;8.60;;
65871;SDS011;52653;50.080;21.992;2022-11-15T07:47:12;16.20;;;7.80;;
65871;SDS011;52653;50.080;21.992;2022-11-15T07:50:02;14.80;;;8.00;;
65871;SDS011;52653;50.080;21.992;2022-11-15T07:52:54;20.90;;;8.50;;
65871;SDS011;52653;50.080;21.992;2022-11-15T07:55:46;23.30;;;9.40;;
65871;SDS011;52653;50.080;21.992;2022-11-15T07:58:36;16.40;;;10.00;;
65871;SDS011;52653;50.080;21.992;2022-11-15T08:01:27;20.00;;;13.10;;
65871;SDS011;52653;50.080;21.992;2022-11-15T08:04:18;17.50;;;11.10;;
65871;SDS011;52653;50.080;21.992;2022-11-15T08:07:09;45.40;;;27.90;;
65871;SDS011;52653;50.080;21.992;2022-11-15T08:10:00;23.40;;;16.10;;
65871;SDS011;52653;50.080;21.992;2022-11-15T08:12:57;17.10;;;11.80;;
65871;SDS011;52653;50.080;21.992;2022-11-15T08:15:49;16.30;;;10.90;;
65871;SDS011;52653;50.080;21.992;2022-11-15T08:18:44;42.60;;;27.50;;
65871;SDS011;52653;50.080;21.992;2022-11-15T08:21:35;31.60;;;22.60;;
65871;SDS011;52653;50.080;21.992;2022-11-15T08:24:26;27.70;;;19.90;;
65871;SDS011;52653;50.080;21.992;2022-11-15T08:27:17;26.40;;;17.10;;
65871;SDS011;52653;50.080;21.992;2022-11-15T08:30:08;29.80;;;18.40;;
65871;SDS011;52653;50.080;21.992;2022-11-15T08:33:00;32.50;;;19.60;;
65871;SDS011;52653;50.080;21.992;2022-11-15T08:35:51;47.80;;;26.20;;
65871;SDS011;52653;50.080;21.992;2022-11-15T08:38:44;48.70;;;24.10;;
65871;SDS011;52653;50.080;21.992;2022-11-15T08:41:35;50.20;;;28.00;;
65871;SDS011;52653;50.080;21.992;2022-11-15T08:44:26;40.80;;;22.90;;
65871;SDS011;52653;50.080;21.992;2022-11-15T08:47:17;20.20;;;14.70;;
65871;SDS011;52653;50.080;21.992;2022-11-15T08:50:08;19.10;;;13.40;;
65871;SDS011;52653;50.080;21.992;2022-11-15T08:52:59;20.60;;;15.60;;
65871;SDS011;52653;50.080;21.992;2022-11-15T08:55:54;19.50;;;14.30;;
65871;SDS011;52653;50.080;21.992;2022-11-15T08:58:44;18.60;;;12.80;;
65871;SDS011;52653;50.080;21.992;2022-11-15T09:01:35;15.20;;;12.10;;
65871;SDS011;52653;50.080;21.992;2022-11-15T09:04:26;20.00;;;14.30;;
65871;SDS011;52653;50.080;21.992;2022-11-15T09:07:16;16.60;;;13.30;;
65871;SDS011;52653;50.080;21.992;2022-11-15T09:10:09;16.10;;;12.60;;
65871;SDS011;52653;50.080;21.992;2022-11-15T09:13:00;24.20;;;16.80;;
65871;SDS011;52653;50.080;21.992;2022-11-15T09:15:51;23.80;;;16.90;;
65871;SDS011;52653;50.080;21.992;2022-11-15T09:18:41;20.30;;;14.60;;
65871;SDS011;52653;50.080;21.992;2022-11-15T09:21:33;17.90;;;12.40;;
65871;SDS011;52653;50.080;21.992;2022-11-15T09:24:23;16.90;;;12.20;;
65871;SDS011;52653;50.080;21.992;2022-11-15T09:27:14;18.60;;;12.00;;
65871;SDS011;52653;50.080;21.992;2022-11-15T09:30:05;17.40;;;11.30;;
65871;SDS011;52653;50.080;21.992;2022-11-15T09:32:56;13.60;;;10.00;;
65871;SDS011;52653;50.080;21.992;2022-11-15T09:35:47;15.30;;;10.60;;
65871;SDS011;52653;50.080;21.992;2022-11-15T09:38:37;16.90;;;12.50;;
65871;SDS011;52653;50.080;21.992;2022-11-15T09:41:32;17.50;;;12.00;;
65871;SDS011;52653;50.080;21.992;2022-11-15T09:44:34;17.40;;;12.50;;
65871;SDS011;52653;50.080;21.992;2022-11-15T09:47:40;19.60;;;13.30;;
65871;SDS011;52653;50.080;21.992;2022-11-15T09:50:41;19.40;;;14.00;;
65871;SDS011;52653;50.080;21.992;2022-11-15T09:53:18;21.10;;;14.80;;
65871;SDS011;52653;50.080;21.992;2022-11-15T09:56:16;21.70;;;15.10;;
65871;SDS011;52653;50.080;21.992;2022-11-15T09:58:53;20.10;;;14.40;;
65871;SDS011;52653;50.080;21.992;2022-11-15T10:01:33;23.10;;;15.90;;
65871;SDS011;52653;50.080;21.992;2022-11-15T10:04:11;23.50;;;16.50;;
65871;SDS011;52653;50.080;21.992;2022-11-15T10:06:46;25.40;;;20.10;;
65871;SDS011;52653;50.080;21.992;2022-11-15T10:09:25;33.20;;;21.50;;
65871;SDS011;52653;50.080;21.992;2022-11-15T10:12:02;28.40;;;20.30;;
65871;SDS011;52653;50.080;21.992;2022-11-15T10:14:34;29.70;;;19.50;;
65871;SDS011;52653;50.080;21.992;2022-11-15T10:17:13;27.80;;;19.20;;
65871;SDS011;52653;50.080;21.992;2022-11-15T10:20:02;27.20;;;16.80;;
65871;SDS011;52653;50.080;21.992;2022-11-15T10:22:41;27.10;;;17.30;;
65871;SDS011;52653;50.080;21.992;2022-11-15T10:25:19;24.60;;;16.40;;
65871;SDS011;52653;50.080;21.992;2022-11-15T10:27:57;22.00;;;15.90;;
65871;SDS011;52653;50.080;21.992;2022-11-15T10:30:32;23.10;;;16.50;;
65871;SDS011;52653;50.080;21.992;2022-11-15T10:33:11;24.00;;;16.40;;
65871;SDS011;52653;50.080;21.992;2022-11-15T10:35:47;24.00;;;16.20;;
65871;SDS011;52653;50.080;21.992;2022-11-15T10:38:49;25.30;;;17.10;;
65871;SDS011;52653;50.080;21.992;2022-11-15T10:41:35;22.80;;;16.40;;
65871;SDS011;52653;50.080;21.992;2022-11-15T10:44:17;28.50;;;17.80;;
65871;SDS011;52653;50.080;21.992;2022-11-15T10:49:55;23.40;;;15.60;;
65871;SDS011;52653;50.080;21.992;2022-11-15T10:52:29;25.80;;;16.10;;
65871;SDS011;52653;50.080;21.992;2022-11-15T10:55:21;24.30;;;15.90;;
65871;SDS011;52653;50.080;21.992;2022-11-15T10:57:58;25.30;;;16.90;;
65871;SDS011;52653;50.080;21.992;2022-11-15T11:00:36;24.10;;;16.40;;
65871;SDS011;52653;50.080;21.992;2022-11-15T11:03:21;24.00;;;15.90;;
65871;SDS011;52653;50.080;21.992;2022-11-15T11:06:08;26.90;;;17.60;;
65871;SDS011;52653;50.080;21.992;2022-11-15T11:08:44;28.40;;;19.20;;
65871;SDS011;52653;50.080;21.992;2022-11-15T11:11:27;31.60;;;20.10;;
65871;SDS011;52653;50.080;21.992;2022-11-15T11:14:17;26.40;;;17.90;;
65871;SDS011;52653;50.080;21.992;2022-11-15T11:16:52;25.60;;;17.40;;
65871;SDS011;52653;50.080;21.992;2022-11-15T11:19:39;24.50;;;16.70;;
65871;SDS011;52653;50.080;21.992;2022-11-15T11:22:28;24.50;;;16.90;;
65871;SDS011;52653;50.080;21.992;2022-11-15T11:25:14;24.30;;;17.00;;
65871;SDS011;52653;50.080;21.992;2022-11-15T11:28:02;26.80;;;18.00;;
65871;SDS011;52653;50.080;21.992;2022-11-15T11:30:47;24.70;;;17.40;;
65871;SDS011;52653;50.080;21.992;2022-11-15T11:33:29;23.40;;;16.80;;
65871;SDS011;52653;50.080;21.992;2022-11-15T11:36:06;22.90;;;16.90;;
65871;SDS011;52653;50.080;21.992;2022-11-15T11:38:56;23.40;;;17.90;;
65871;SDS011;52653;50.080;21.992;2022-11-15T11:41:43;25.80;;;17.20;;
65871;SDS011;52653;50.080;21.992;2022-11-15T11:44:28;24.80;;;17.50;;
65871;SDS011;52653;50.080;21.992;2022-11-15T11:47:09;23.70;;;17.30;;
65871;SDS011;52653;50.080;21.992;2022-11-15T11:49:44;21.50;;;15.40;;
65871;SDS011;52653;50.080;21.992;2022-11-15T11:54:58;21.30;;;14.90;;
65871;SDS011;52653;50.080;21.992;2022-11-15T11:57:38;18.40;;;14.20;;
65871;SDS011;52653;50.080;21.992;2022-11-15T12:00:18;23.50;;;17.50;;
65871;SDS011;52653;50.080;21.992;2022-11-15T12:02:55;30.10;;;20.10;;
65871;SDS011;52653;50.080;21.992;2022-11-15T12:05:39;22.80;;;16.20;;
65871;SDS011;52653;50.080;21.992;2022-11-15T12:08:20;22.70;;;16.40;;
65871;SDS011;52653;50.080;21.992;2022-11-15T12:11:00;20.90;;;15.70;;
65871;SDS011;52653;50.080;21.992;2022-11-15T12:13:39;19.10;;;15.20;;
65871;SDS011;52653;50.080;21.992;2022-11-15T12:16:16;20.70;;;15.50;;
65871;SDS011;52653;50.080;21.992;2022-11-15T12:18:53;24.20;;;17.10;;
65871;SDS011;52653;50.080;21.992;2022-11-15T12:21:29;23.50;;;17.20;;
65871;SDS011;52653;50.080;21.992;2022-11-15T12:24:11;22.40;;;15.80;;
65871;SDS011;52653;50.080;21.992;2022-11-15T12:26:49;20.60;;;15.10;;
65871;SDS011;52653;50.080;21.992;2022-11-15T12:29:26;38.80;;;25.00;;
65871;SDS011;52653;50.080;21.992;2022-11-15T12:34:38;41.20;;;25.90;;
65871;SDS011;52653;50.080;21.992;2022-11-15T12:40:31;26.50;;;18.30;;
65871;SDS011;52653;50.080;21.992;2022-11-15T12:46:10;18.00;;;13.50;;
65871;SDS011;52653;50.080;21.992;2022-11-15T12:48:47;19.40;;;14.00;;
65871;SDS011;52653;50.080;21.992;2022-11-15T12:57:37;22.50;;;14.90;;
65871;SDS011;52653;50.080;21.992;2022-11-15T13:03:21;24.50;;;16.70;;
65871;SDS011;52653;50.080;21.992;2022-11-15T13:06:05;21.20;;;15.30;;
65871;SDS011;52653;50.080;21.992;2022-11-15T13:08:59;22.60;;;16.10;;
65871;SDS011;52653;50.080;21.992;2022-11-15T13:14:37;24.30;;;16.70;;
65871;SDS011;52653;50.080;21.992;2022-11-15T13:17:24;26.10;;;16.60;;
65871;SDS011;52653;50.080;21.992;2022-11-15T13:19:59;26.10;;;17.40;;
65871;SDS011;52653;50.080;21.992;2022-11-15T13:22:44;29.40;;;19.90;;
65871;SDS011;52653;50.080;21.992;2022-11-15T13:25:42;24.50;;;17.50;;
65871;SDS011;52653;50.080;21.992;2022-11-15T13:28:31;34.10;;;20.90;;
65871;SDS011;52653;50.080;21.992;2022-11-15T13:31:16;32.40;;;23.00;;
65871;SDS011;52653;50.080;21.992;2022-11-15T13:33:54;31.80;;;21.20;;
65871;SDS011;52653;50.080;21.992;2022-11-15T13:36:29;30.90;;;20.10;;
65871;SDS011;52653;50.080;21.992;2022-11-15T13:39:05;28.50;;;19.30;;
65871;SDS011;52653;50.080;21.992;2022-11-15T13:41:47;28.60;;;19.00;;
65871;SDS011;52653;50.080;21.992;2022-11-15T13:44:21;26.00;;;18.90;;
65871;SDS011;52653;50.080;21.992;2022-11-15T13:47:05;26.00;;;18.50;;
65871;SDS011;52653;50.080;21.992;2022-11-15T13:49:42;26.50;;;18.50;;
65871;SDS011;52653;50.080;21.992;2022-11-15T13:52:14;26.80;;;17.40;;
65871;SDS011;52653;50.080;21.992;2022-11-15T13:54:47;23.50;;;17.20;;
65871;SDS011;52653;50.080;21.992;2022-11-15T13:57:27;24.30;;;16.50;;
65871;SDS011;52653;50.080;21.992;2022-11-15T14:00:21;31.80;;;17.10;;
65871;SDS011;52653;50.080;21.992;2022-11-15T14:02:57;22.40;;;16.40;;
65871;SDS011;52653;50.080;21.992;2022-11-15T14:05:38;25.60;;;17.90;;
65871;SDS011;52653;50.080;21.992;2022-11-15T14:08:21;30.10;;;18.80;;
65871;SDS011;52653;50.080;21.992;2022-11-15T14:11:07;30.50;;;19.90;;
65871;SDS011;52653;50.080;21.992;2022-11-15T14:16:52;35.20;;;23.40;;
65871;SDS011;52653;50.080;21.992;2022-11-15T14:19:35;32.40;;;19.90;;
65871;SDS011;52653;50.080;21.992;2022-11-15T14:22:09;30.80;;;19.80;;
65871;SDS011;52653;50.080;21.992;2022-11-15T14:24:43;32.70;;;20.80;;
65871;SDS011;52653;50.080;21.992;2022-11-15T14:27:20;32.10;;;20.00;;
65871;SDS011;52653;50.080;21.992;2022-11-15T14:30:13;32.70;;;21.60;;
65871;SDS011;52653;50.080;21.992;2022-11-15T14:32:46;31.00;;;21.50;;
65871;SDS011;52653;50.080;21.992;2022-11-15T14:35:21;44.20;;;30.00;;
65871;SDS011;52653;50.080;21.992;2022-11-15T14:37:53;41.30;;;27.40;;
65871;SDS011;52653;50.080;21.992;2022-11-15T14:40:25;40.50;;;29.90;;
65871;SDS011;52653;50.080;21.992;2022-11-15T14:42:57;42.20;;;28.20;;
65871;SDS011;52653;50.080;21.992;2022-11-15T14:45:29;38.70;;;27.90;;
65871;SDS011;52653;50.080;21.992;2022-11-15T14:48:01;49.80;;;32.20;;
65871;SDS011;52653;50.080;21.992;2022-11-15T14:50:33;37.60;;;25.60;;
65871;SDS011;52653;50.080;21.992;2022-11-15T14:53:10;36.50;;;26.20;;
65871;SDS011;52653;50.080;21.992;2022-11-15T14:55:44;37.70;;;25.90;;
65871;SDS011;52653;50.080;21.992;2022-11-15T14:58:16;41.60;;;26.40;;
65871;SDS011;52653;50.080;21.992;2022-11-15T15:00:48;43.50;;;28.30;;
65871;SDS011;52653;50.080;21.992;2022-11-15T15:03:20;37.00;;;25.30;;
65871;SDS011;52653;50.080;21.992;2022-11-15T15:05:52;41.30;;;27.70;;
65871;SDS011;52653;50.080;21.992;2022-11-15T15:08:25;41.00;;;25.20;;
65871;SDS011;52653;50.080;21.992;2022-11-15T15:10:57;40.00;;;25.50;;
65871;SDS011;52653;50.080;21.992;2022-11-15T15:13:30;38.40;;;25.00;;
65871;SDS011;52653;50.080;21.992;2022-11-15T15:16:02;38.10;;;25.90;;
65871;SDS011;52653;50.080;21.992;2022-11-15T15:18:34;36.40;;;23.00;;
65871;SDS011;52653;50.080;21.992;2022-11-15T15:21:13;35.90;;;25.10;;
65871;SDS011;52653;50.080;21.992;2022-11-15T15:23:50;37.50;;;23.60;;
65871;SDS011;52653;50.080;21.992;2022-11-15T15:26:23;36.00;;;23.30;;
65871;SDS011;52653;50.080;21.992;2022-11-15T15:28:56;37.60;;;24.00;;
65871;SDS011;52653;50.080;21.992;2022-11-15T15:31:28;32.10;;;23.70;;
65871;SDS011;52653;50.080;21.992;2022-11-15T15:34:01;35.40;;;22.60;;
65871;SDS011;52653;50.080;21.992;2022-11-15T15:36:33;50.10;;;32.20;;
65871;SDS011;52653;50.080;21.992;2022-11-15T15:39:07;44.60;;;30.30;;
65871;SDS011;52653;50.080;21.992;2022-11-15T15:41:40;38.30;;;26.00;;
65871;SDS011;52653;50.080;21.992;2022-11-15T15:44:12;51.90;;;33.20;;
65871;SDS011;52653;50.080;21.992;2022-11-15T15:46:44;54.60;;;32.90;;
65871;SDS011;52653;50.080;21.992;2022-11-15T15:49:16;54.60;;;35.70;;
65871;SDS011;52653;50.080;21.992;2022-11-15T15:51:48;52.90;;;32.80;;
65871;SDS011;52653;50.080;21.992;2022-11-15T15:54:19;45.50;;;29.50;;
65871;SDS011;52653;50.080;21.992;2022-11-15T15:56:52;45.80;;;31.20;;
65871;SDS011;52653;50.080;21.992;2022-11-15T15:59:24;40.10;;;28.90;;
65871;SDS011;52653;50.080;21.992;2022-11-15T16:01:56;49.50;;;33.60;;
65871;SDS011;52653;50.080;21.992;2022-11-15T16:04:28;46.60;;;32.90;;
65871;SDS011;52653;50.080;21.992;2022-11-15T16:06:59;47.30;;;33.40;;
65871;SDS011;52653;50.080;21.992;2022-11-15T16:09:33;48.20;;;31.80;;
65871;SDS011;52653;50.080;21.992;2022-11-15T16:12:22;41.90;;;29.30;;
65871;SDS011;52653;50.080;21.992;2022-11-15T16:14:54;39.70;;;28.20;;
65871;SDS011;52653;50.080;21.992;2022-11-15T16:17:27;45.30;;;30.50;;
65871;SDS011;52653;50.080;21.992;2022-11-15T16:20:02;43.00;;;27.90;;
65871;SDS011;52653;50.080;21.992;2022-11-15T16:22:35;43.90;;;30.90;;
65871;SDS011;52653;50.080;21.992;2022-11-15T16:25:07;47.30;;;31.30;;
65871;SDS011;52653;50.080;21.992;2022-11-15T16:27:39;49.90;;;33.00;;
65871;SDS011;52653;50.080;21.992;2022-11-15T16:30:14;54.50;;;33.90;;
65871;SDS011;52653;50.080;21.992;2022-11-15T16:32:48;46.60;;;29.20;;
65871;SDS011;52653;50.080;21.992;2022-11-15T16:35:20;48.90;;;30.00;;
65871;SDS011;52653;50.080;21.992;2022-11-15T16:37:53;45.70;;;30.90;;
65871;SDS011;52653;50.080;21.992;2022-11-15T16:40:26;50.80;;;33.20;;